Time;durP1;ratioP1;P1;durP2;ratioP2;P2;SDS_P1;SDS_P2;PMS_P1;PMS_P2;Temp;Humidity;BMP_temperature;BMP_pressure;BME280_temperature;BME280_humidity;BME280_pressure;Samples;Min_cycle;Max_cycle;Signal;HPM_P1;HPM_P2
2022/06/22 00:02:05;;;;;;;15.70;9.82;;;14.10;99.90;;;;;;4993330;28;20134;-69
2022/06/22 00:04:37;;;;;;;20.67;9.48;;;14.00;99.90;;;;;;5012691;28;20125;-69
2022/06/22 00:07:05;;;;;;;15.10;8.15;;;14.00;99.90;;;;;;5012147;28;20088;-69
2022/06/22 00:09:33;;;;;;;20.17;11.15;;;13.90;99.90;;;;;;5012040;28;20075;-69
2022/06/22 00:11:59;;;;;;;21.25;10.82;;;13.90;99.90;;;;;;5010583;28;20025;-69
2022/06/22 00:14:30;;;;;;;29.10;9.75;;;13.90;99.90;;;;;;5010258;28;20088;-69
2022/06/22 00:16:56;;;;;;;18.73;8.50;;;13.90;99.90;;;;;;5011736;28;20030;-69
2022/06/22 00:19:33;;;;;;;14.23;6.80;;;13.80;99.90;;;;;;5013343;28;20018;-69
2022/06/22 00:21:59;;;;;;;10.63;6.50;;;13.90;99.90;;;;;;5010036;28;20030;-69
2022/06/22 00:24:25;;;;;;;10.63;6.20;;;13.80;99.90;;;;;;5010288;28;20402;-69
2022/06/22 00:26:55;;;;;;;8.90;4.15;;;13.80;99.90;;;;;;5011041;28;20057;-70
2022/06/22 00:29:23;;;;;;;7.78;4.38;;;13.70;99.90;;;;;;5011785;28;20399;-71
2022/06/22 00:31:48;;;;;;;12.00;4.65;;;13.70;99.90;;;;;;5001616;28;20026;-69
2022/06/22 00:34:21;;;;;;;9.90;4.15;;;13.70;99.90;;;;;;4995667;28;20675;-69
2022/06/22 00:36:47;;;;;;;14.20;4.97;;;13.70;99.90;;;;;;5001203;28;20394;-69
2022/06/22 00:39:22;;;;;;;11.93;4.25;;;13.60;99.90;;;;;;5009828;28;20022;-70
2022/06/22 00:41:56;;;;;;;7.93;3.65;;;13.60;99.90;;;;;;4994590;28;20052;-70
2022/06/22 00:44:23;;;;;;;10.77;4.57;;;13.60;99.90;;;;;;5007558;28;20026;-72
2022/06/22 00:46:59;;;;;;;11.38;4.28;;;13.40;99.90;;;;;;5009397;28;20029;-69
2022/06/22 00:49:25;;;;;;;8.90;3.85;;;13.40;99.90;;;;;;5022962;28;20391;-70
2022/06/22 00:51:51;;;;;;;8.65;4.03;;;13.40;99.90;;;;;;5024933;28;20031;-69
2022/06/22 00:54:23;;;;;;;10.00;4.03;;;13.40;99.90;;;;;;4992189;28;20037;-69
2022/06/22 00:56:54;;;;;;;7.13;3.95;;;13.30;99.90;;;;;;4993474;28;20410;-68
2022/06/22 00:59:28;;;;;;;15.80;4.45;;;13.20;99.90;;;;;;5023420;28;20026;-69
2022/06/22 01:02:13;;;;;;;30.90;8.00;;;13.20;99.90;;;;;;4993495;28;20378;-70
2022/06/22 01:04:56;;;;;;;24.27;7.65;;;13.00;99.90;;;;;;5022867;28;20297;-70
2022/06/22 01:07:33;;;;;;;14.20;5.35;;;13.00;99.90;;;;;;5017635;28;20030;-69
2022/06/22 01:10:05;;;;;;;9.68;4.70;;;12.90;99.90;;;;;;5023934;28;20022;-69
2022/06/22 01:12:39;;;;;;;13.95;3.95;;;12.80;99.90;;;;;;5006369;28;20041;-70
2022/06/22 01:15:05;;;;;;;15.70;5.50;;;13.00;99.90;;;;;;5023697;28;20022;-70
2022/06/22 01:17:35;;;;;;;9.95;4.97;;;13.00;99.90;;;;;;4994266;28;20031;-70
2022/06/22 01:20:09;;;;;;;12.40;3.85;;;12.90;99.90;;;;;;5008023;28;20033;-70
2022/06/22 01:22:51;;;;;;;10.70;4.43;;;12.90;99.90;;;;;;5023885;28;20483;-69
2022/06/22 01:25:56;;;;;;;10.52;4.93;;;12.90;99.90;;;;;;5029094;28;20038;-69
2022/06/22 01:28:22;;;;;;;14.82;5.05;;;12.80;99.90;;;;;;4991606;28;20030;-69
2022/06/22 01:30:55;;;;;;;12.18;4.47;;;12.80;99.90;;;;;;4978302;28;20398;-69
2022/06/22 01:33:33;;;;;;;14.73;4.90;;;12.80;99.90;;;;;;4988685;28;20045;-69
2022/06/22 01:36:07;;;;;;;10.93;4.38;;;12.70;99.90;;;;;;5013416;28;20508;-69
2022/06/22 01:38:35;;;;;;;13.13;5.43;;;12.60;99.90;;;;;;5013864;28;20037;-70
2022/06/22 01:41:06;;;;;;;13.80;4.60;;;12.60;99.90;;;;;;5005705;28;20081;-69
2022/06/22 01:43:45;;;;;;;9.38;5.10;;;12.60;99.90;;;;;;4997922;28;20088;-69
2022/06/22 01:46:32;;;;;;;24.65;8.25;;;12.60;99.90;;;;;;5029521;28;20113;-69
2022/06/22 01:49:06;;;;;;;22.20;7.30;;;12.50;99.90;;;;;;5024160;28;20105;-74
2022/06/22 01:52:07;;;;;;;23.60;7.63;;;12.50;99.90;;;;;;5010717;28;20032;-72
2022/06/22 01:55:05;;;;;;;;;;;;;;;;;;;;;
2022/06/22 01:57:35;;;;;;;11.45;4.90;;;12.50;99.90;;;;;;5013307;28;20048;-77
2022/06/22 02:00:11;;;;;;;11.48;5.43;;;12.50;99.90;;;;;;5002660;28;20038;-72
2022/06/22 02:02:56;;;;;;;10.32;4.60;;;12.60;99.90;;;;;;5010798;28;20148;-74
2022/06/22 02:05:26;;;;;;;14.82;5.82;;;12.60;99.90;;;;;;5009612;28;20034;-72
2022/06/22 02:08:03;;;;;;;8.23;4.43;;;12.70;99.90;;;;;;5027362;28;20053;-71
2022/06/22 02:10:37;;;;;;;14.05;5.10;;;12.60;99.90;;;;;;4995234;28;20030;-70
2022/06/22 02:13:26;;;;;;;17.92;5.75;;;12.80;99.90;;;;;;4997639;28;20448;-70
2022/06/22 02:16:13;;;;;;;16.02;4.93;;;12.80;99.90;;;;;;5015620;28;20136;-70
2022/06/22 02:18:56;;;;;;;23.17;6.20;;;12.80;99.90;;;;;;4997623;28;20043;-70
2022/06/22 02:21:26;;;;;;;11.15;4.35;;;13.00;99.90;;;;;;5001636;28;20030;-70
2022/06/22 02:24:26;;;;;;;19.77;5.20;;;13.00;99.90;;;;;;5015772;28;20022;-70
2022/06/22 02:26:54;;;;;;;14.45;5.53;;;12.90;99.90;;;;;;5012925;28;20022;-70
2022/06/22 02:29:31;;;;;;;26.23;7.68;;;13.00;99.90;;;;;;4992495;28;20029;-70
2022/06/22 02:31:59;;;;;;;18.25;7.00;;;12.90;99.90;;;;;;5014159;28;20066;-70
2022/06/22 02:34:24;;;;;;;24.95;7.30;;;13.00;99.90;;;;;;5006749;28;20040;-69
2022/06/22 02:36:51;;;;;;;26.02;7.72;;;12.90;99.90;;;;;;5026982;28;20113;-69
2022/06/22 02:39:17;;;;;;;16.17;4.60;;;12.80;99.90;;;;;;5027049;28;20034;-69
2022/06/22 02:44:33;;;;;;;18.73;5.43;;;12.80;99.90;;;;;;5009788;28;20091;-69
2022/06/22 02:47:19;;;;;;;17.63;5.18;;;12.80;99.90;;;;;;5005394;28;20034;-69
2022/06/22 02:49:54;;;;;;;29.15;7.60;;;12.70;99.90;;;;;;5002740;28;20118;-70
2022/06/22 02:52:20;;;;;;;28.40;7.88;;;12.60;99.90;;;;;;5010047;28;20085;-69
2022/06/22 02:54:54;;;;;;;21.63;7.07;;;12.50;99.90;;;;;;4995377;28;20042;-70
2022/06/22 02:57:33;;;;;;;25.67;7.28;;;12.50;99.90;;;;;;5011966;28;20034;-70
2022/06/22 02:59:58;;;;;;;14.52;5.93;;;12.50;99.90;;;;;;4988316;28;20117;-69
2022/06/22 03:02:24;;;;;;;21.02;6.90;;;12.60;99.90;;;;;;4995229;28;20064;-69
2022/06/22 03:04:49;;;;;;;28.35;8.10;;;12.60;99.90;;;;;;4996059;28;20122;-70
2022/06/22 03:07:15;;;;;;;18.50;6.10;;;12.60;99.90;;;;;;5014947;28;20105;-69
2022/06/22 03:09:40;;;;;;;17.80;6.72;;;12.40;99.90;;;;;;5013682;28;20076;-68
2022/06/22 03:12:06;;;;;;;18.25;7.15;;;12.40;99.90;;;;;;5026703;28;20027;-69
2022/06/22 03:14:55;;;;;;;18.20;5.45;;;12.30;99.90;;;;;;4994049;28;20034;-68
2022/06/22 03:17:35;;;;;;;19.15;6.63;;;12.30;99.90;;;;;;4995643;28;20035;-69
2022/06/22 03:20:06;;;;;;;16.08;6.03;;;12.30;99.90;;;;;;4995287;28;20042;-70
2022/06/22 03:22:38;;;;;;;14.65;6.20;;;12.40;99.90;;;;;;4993816;28;20109;-70
2022/06/22 03:25:32;;;;;;;19.38;6.18;;;12.40;99.90;;;;;;4997610;28;20097;-69
2022/06/22 03:27:59;;;;;;;16.58;5.90;;;12.40;99.90;;;;;;5009416;28;20030;-69
2022/06/22 03:30:51;;;;;;;28.25;6.72;;;12.50;99.90;;;;;;5001862;28;20038;-69
2022/06/22 03:33:21;;;;;;;18.98;6.00;;;12.50;99.90;;;;;;5001167;28;20046;-70
2022/06/22 03:35:53;;;;;;;20.13;6.93;;;12.60;99.90;;;;;;5013320;28;20393;-70
2022/06/22 03:38:27;;;;;;;13.20;5.85;;;12.70;99.90;;;;;;5011568;28;20129;-70
2022/06/22 03:41:02;;;;;;;19.52;6.78;;;12.70;99.90;;;;;;5013231;28;20503;-69
2022/06/22 03:43:52;;;;;;;19.88;6.50;;;12.70;99.90;;;;;;5013013;28;20050;-69
2022/06/22 03:46:26;;;;;;;27.45;8.32;;;12.70;99.90;;;;;;5013164;28;20045;-69
2022/06/22 03:49:07;;;;;;;19.75;6.90;;;12.70;99.90;;;;;;5012569;28;20022;-69
2022/06/22 03:51:47;;;;;;;24.48;6.95;;;12.80;99.90;;;;;;5011868;28;20022;-70
2022/06/22 03:54:14;;;;;;;14.68;5.93;;;12.80;99.90;;;;;;5024474;28;20022;-69
2022/06/22 03:56:45;;;;;;;15.63;6.50;;;12.80;99.90;;;;;;4994388;28;20034;-69
2022/06/22 03:59:11;;;;;;;14.80;6.13;;;12.80;99.90;;;;;;5026087;28;20055;-69
2022/06/22 04:01:37;;;;;;;12.10;5.35;;;12.90;99.90;;;;;;4994241;28;20056;-69
2022/06/22 04:04:02;;;;;;;16.13;5.50;;;12.90;99.90;;;;;;4993969;28;20104;-69
2022/06/22 04:06:36;;;;;;;19.63;6.28;;;13.10;99.90;;;;;;5009380;28;20506;-70
2022/06/22 04:09:03;;;;;;;24.55;5.13;;;13.20;99.90;;;;;;5008572;28;20053;-70
2022/06/22 04:11:35;;;;;;;14.02;5.30;;;13.40;99.90;;;;;;5025771;28;20430;-70
2022/06/22 04:14:04;;;;;;;21.90;6.43;;;13.80;99.90;;;;;;5008975;28;20088;-70
2022/06/22 04:16:35;;;;;;;11.52;4.85;;;14.20;99.90;;;;;;4992844;28;20441;-70
2022/06/22 04:19:17;;;;;;;21.08;6.35;;;14.50;99.90;;;;;;4993047;28;20049;-71
2022/06/22 04:21:48;;;;;;;13.15;5.22;;;14.90;99.90;;;;;;4993583;28;20037;-71
2022/06/22 04:24:26;;;;;;;12.50;4.53;;;15.10;99.70;;;;;;4994153;28;20109;-70
2022/06/22 04:27:13;;;;;;;14.73;4.80;;;15.30;99.30;;;;;;5002977;28;20497;-70
2022/06/22 04:29:48;;;;;;;25.65;7.63;;;15.80;98.20;;;;;;5012223;28;20042;-70
2022/06/22 04:32:39;;;;;;;23.73;6.32;;;16.20;97.20;;;;;;4998482;28;20024;-69
2022/06/22 04:35:23;;;;;;;63.88;16.13;;;15.60;97.80;;;;;;5021485;28;20037;-72
2022/06/22 04:37:50;;;;;;;19.38;5.30;;;15.50;98.70;;;;;;5008177;28;20062;-71
2022/06/22 04:40:35;;;;;;;18.50;5.72;;;15.60;97.90;;;;;;5025388;28;20022;-70
2022/06/22 04:43:03;;;;;;;35.35;9.85;;;15.60;98.40;;;;;;4992489;28;20023;-70
2022/06/22 04:45:34;;;;;;;36.92;10.25;;;15.60;98.70;;;;;;4992454;28;20034;-70
2022/06/22 04:48:06;;;;;;;54.20;13.57;;;15.40;99.40;;;;;;4992478;28;20475;-70
2022/06/22 04:50:33;;;;;;;31.92;9.80;;;15.30;99.30;;;;;;4993278;28;20022;-70
2022/06/22 04:52:59;;;;;;;24.05;8.00;;;15.20;99.60;;;;;;4992435;28;20093;-69
2022/06/22 04:55:25;;;;;;;19.73;6.15;;;15.20;99.80;;;;;;4993819;28;20458;-69
2022/06/22 04:57:52;;;;;;;22.83;6.82;;;15.10;99.80;;;;;;5006204;28;20475;-71
2022/06/22 05:00:20;;;;;;;13.80;5.38;;;15.10;99.90;;;;;;4992125;28;20038;-70
2022/06/22 05:02:46;;;;;;;16.60;6.10;;;15.00;99.80;;;;;;4993137;28;20483;-70
2022/06/22 05:05:23;;;;;;;26.27;6.97;;;15.30;99.60;;;;;;5024409;28;20041;-70
2022/06/22 05:07:55;;;;;;;11.10;4.82;;;16.10;98.00;;;;;;4992258;28;20045;-70
2022/06/22 05:10:34;;;;;;;14.68;5.13;;;17.00;95.50;;;;;;4992692;28;20057;-71
2022/06/22 05:13:02;;;;;;;23.67;4.80;;;17.20;94.50;;;;;;5021846;28;20034;-71
2022/06/22 05:15:38;;;;;;;13.20;4.43;;;17.60;93.10;;;;;;5024925;28;20026;-71
2022/06/22 05:18:05;;;;;;;25.83;7.40;;;18.00;91.40;;;;;;5023557;28;20022;-71
2022/06/22 05:20:48;;;;;;;14.45;4.95;;;18.10;92.40;;;;;;5009106;28;20521;-71
2022/06/22 05:23:14;;;;;;;10.15;4.55;;;18.30;91.40;;;;;;5010248;28;20037;-72
2022/06/22 05:25:41;;;;;;;13.65;4.72;;;18.30;90.80;;;;;;5007048;28;20026;-70
2022/06/22 05:28:08;;;;;;;10.65;4.32;;;18.00;91.60;;;;;;4994548;28;20049;-72
2022/06/22 05:31:05;;;;;;;14.65;4.60;;;18.40;91.00;;;;;;4996585;28;20445;-79
2022/06/22 05:33:32;;;;;;;17.55;6.18;;;18.60;90.10;;;;;;5011790;28;20042;-78
2022/06/22 05:36:05;;;;;;;16.92;4.20;;;18.60;89.90;;;;;;5004104;28;20041;-74
2022/06/22 05:38:32;;;;;;;23.90;6.63;;;18.40;90.10;;;;;;5007852;28;20037;-75
2022/06/22 05:41:10;;;;;;;11.25;4.07;;;18.60;89.80;;;;;;5008229;28;20046;-77
2022/06/22 05:43:36;;;;;;;16.40;6.68;;;19.40;84.50;;;;;;5007370;28;20038;-74
2022/06/22 05:46:02;;;;;;;32.30;8.13;;;19.70;84.00;;;;;;4993951;28;20023;-73
2022/06/22 05:48:29;;;;;;;9.88;3.50;;;19.70;81.90;;;;;;5008063;28;20027;-73
2022/06/22 05:51:00;;;;;;;21.33;5.90;;;20.10;76.50;;;;;;5008392;28;20462;-74
2022/06/22 05:53:48;;;;;;;13.52;5.03;;;20.30;75.90;;;;;;5011498;28;20561;-77
2022/06/22 05:56:22;;;;;;;10.43;3.95;;;21.20;73.40;;;;;;5011224;28;20030;-72
2022/06/22 05:59:07;;;;;;;15.57;4.25;;;21.10;71.80;;;;;;5010064;28;20053;-73
2022/06/22 06:01:50;;;;;;;8.40;3.67;;;21.20;71.20;;;;;;5006376;28;20057;-73
2022/06/22 06:04:48;;;;;;;7.25;2.92;;;20.80;70.60;;;;;;4999675;28;20038;-73
2022/06/22 06:07:20;;;;;;;20.00;4.43;;;21.30;70.00;;;;;;5023699;28;20022;-73
2022/06/22 06:09:46;;;;;;;10.80;3.72;;;21.40;70.70;;;;;;5000701;28;20034;-73
2022/06/22 06:12:15;;;;;;;13.55;6.78;;;21.60;68.60;;;;;;5002733;28;20032;-73
2022/06/22 06:14:45;;;;;;;10.15;3.45;;;22.10;67.20;;;;;;5027733;28;20498;-77
2022/06/22 06:17:35;;;;;;;23.48;4.82;;;22.60;66.40;;;;;;5027383;28;20395;-77
2022/06/22 06:20:01;;;;;;;12.25;3.38;;;23.50;61.80;;;;;;5018583;28;20042;-78
2022/06/22 06:22:28;;;;;;;14.52;5.55;;;23.00;62.30;;;;;;5011394;28;20018;-79
2022/06/22 06:27:44;;;;;;;9.25;3.17;;;23.30;62.10;;;;;;5008979;28;20029;-79
2022/06/22 06:30:18;;;;;;;14.82;3.42;;;23.20;62.80;;;;;;5011177;28;20065;-80
2022/06/22 06:32:51;;;;;;;14.85;4.10;;;22.70;61.90;;;;;;5010514;28;20424;-79
2022/06/22 06:35:54;;;;;;;13.30;3.25;;;24.20;61.20;;;;;;4996080;28;20379;-79
2022/06/22 06:38:25;;;;;;;7.07;3.17;;;23.80;59.40;;;;;;5007282;28;20041;-76
2022/06/22 06:40:57;;;;;;;12.02;3.80;;;24.20;58.10;;;;;;4995176;28;20118;-81
2022/06/22 06:43:25;;;;;;;5.43;2.15;;;25.50;58.20;;;;;;5026570;28;20034;-81
2022/06/22 06:45:52;;;;;;;5.88;2.85;;;26.60;53.70;;;;;;4995667;28;20042;-79
2022/06/22 06:48:21;;;;;;;9.88;3.50;;;27.10;52.70;;;;;;5010796;28;20110;-77
2022/06/22 06:50:48;;;;;;;8.50;5.00;;;26.30;54.70;;;;;;5010309;28;20022;-77
2022/06/22 06:53:24;;;;;;;4.90;2.63;;;26.60;53.60;;;;;;5010785;28;20372;-77
2022/06/22 06:55:50;;;;;;;11.02;3.42;;;26.70;51.80;;;;;;5027183;28;20108;-83
2022/06/22 06:58:37;;;;;;;6.80;2.47;;;27.70;53.60;;;;;;5027363;28;20050;-79
2022/06/22 07:01:03;;;;;;;6.38;2.35;;;28.30;50.80;;;;;;5022403;28;20100;-78
2022/06/22 07:03:35;;;;;;;6.93;2.35;;;27.40;51.20;;;;;;5010429;28;20050;-77
2022/06/22 07:06:01;;;;;;;7.28;2.47;;;27.50;51.80;;;;;;5010063;28;20367;-76
2022/06/22 07:08:36;;;;;;;4.40;2.40;;;26.80;52.00;;;;;;5010361;28;20475;-70
2022/06/22 07:11:12;;;;;;;8.98;2.15;;;28.20;49.50;;;;;;5010147;28;20037;-71
2022/06/22 07:13:49;;;;;;;8.23;2.30;;;26.70;49.70;;;;;;5026787;28;20034;-70
2022/06/22 07:16:20;;;;;;;8.60;2.10;;;26.70;50.60;;;;;;4995198;28;20034;-70
2022/06/22 07:18:53;;;;;;;5.57;2.10;;;27.20;51.20;;;;;;4995219;28;20033;-71
2022/06/22 07:21:56;;;;;;;10.32;2.30;;;27.90;49.80;;;;;;5009662;28;20034;-71
2022/06/22 07:24:43;;;;;;;4.22;1.98;;;28.50;48.80;;;;;;4994855;28;20482;-71
2022/06/22 07:27:31;;;;;;;5.57;1.90;;;29.40;46.20;;;;;;4993552;28;20026;-70
2022/06/22 07:30:04;;;;;;;7.07;2.28;;;28.00;49.00;;;;;;4994976;28;20080;-70
2022/06/22 07:32:47;;;;;;;6.35;2.30;;;27.40;49.60;;;;;;5009844;28;20018;-70
2022/06/22 07:35:24;;;;;;;5.05;2.22;;;27.90;49.70;;;;;;5024980;28;20042;-70
2022/06/22 07:37:56;;;;;;;7.88;2.00;;;28.80;49.00;;;;;;5024278;28;20030;-71
2022/06/22 07:40:23;;;;;;;4.28;2.10;;;29.80;47.20;;;;;;5026479;28;20062;-70
2022/06/22 07:42:51;;;;;;;2.35;1.63;;;29.00;46.90;;;;;;5025864;28;20490;-71
2022/06/22 07:45:17;;;;;;;4.95;1.88;;;29.60;47.30;;;;;;5009854;28;20027;-70
2022/06/22 07:47:55;;;;;;;5.28;1.95;;;29.30;47.50;;;;;;5026197;28;20030;-70
2022/06/22 07:50:45;;;;;;;4.07;1.63;;;29.50;47.20;;;;;;5025920;28;20030;-70
2022/06/22 07:53:30;;;;;;;5.85;1.73;;;29.10;46.50;;;;;;4994000;28;20031;-70
2022/06/22 07:56:28;;;;;;;7.05;1.95;;;28.80;46.20;;;;;;4993964;28;20038;-77
2022/06/22 07:59:11;;;;;;;3.60;1.92;;;28.80;46.70;;;;;;4998562;28;20118;-74
2022/06/22 08:01:41;;;;;;;4.60;1.70;;;29.90;45.60;;;;;;5008760;28;20118;-73
2022/06/22 08:04:21;;;;;;;5.88;2.15;;;30.10;45.60;;;;;;5025149;28;20066;-71
2022/06/22 08:07:08;;;;;;;8.23;2.10;;;30.30;45.10;;;;;;5007585;28;20019;-70
2022/06/22 08:09:47;;;;;;;7.20;2.30;;;29.80;45.10;;;;;;5025275;28;20034;-71
2022/06/22 08:12:20;;;;;;;4.50;1.55;;;31.80;43.20;;;;;;5008000;28;20042;-71
2022/06/22 08:14:47;;;;;;;4.28;1.70;;;32.80;41.90;;;;;;5025291;28;20026;-70
2022/06/22 08:17:29;;;;;;;4.25;2.05;;;31.20;42.50;;;;;;4993798;28;20069;-70
2022/06/22 08:19:55;;;;;;;6.07;1.88;;;29.30;44.70;;;;;;5025143;28;20849;-70
2022/06/22 08:22:20;;;;;;;4.60;1.73;;;29.50;44.80;;;;;;5025065;28;20030;-70
2022/06/22 08:24:47;;;;;;;8.23;2.83;;;29.70;45.40;;;;;;5024902;28;20030;-70
2022/06/22 08:27:14;;;;;;;9.07;3.58;;;30.50;44.60;;;;;;5008779;28;20114;-70
2022/06/22 08:29:46;;;;;;;7.05;2.83;;;31.40;42.50;;;;;;5008409;28;20022;-71
2022/06/22 08:32:20;;;;;;;4.28;2.50;;;31.00;43.40;;;;;;5007853;28;20153;-76
2022/06/22 08:34:54;;;;;;;7.80;2.33;;;31.80;42.90;;;;;;5023176;28;20116;-76
2022/06/22 08:37:40;;;;;;;11.70;2.17;;;31.10;42.10;;;;;;4993475;28;20160;-71
2022/06/22 08:40:24;;;;;;;5.45;1.80;;;31.60;42.60;;;;;;5025031;28;20088;-71
2022/06/22 08:43:05;;;;;;;7.60;2.13;;;31.10;44.10;;;;;;4993120;28;20029;-71
2022/06/22 08:45:43;;;;;;;4.57;1.90;;;31.50;43.60;;;;;;5024859;28;20026;-71
2022/06/22 08:48:27;;;;;;;5.35;1.88;;;31.00;43.20;;;;;;4993367;28;20050;-70
2022/06/22 08:51:10;;;;;;;9.35;1.60;;;31.60;42.80;;;;;;4993132;28;20026;-71
2022/06/22 08:53:47;;;;;;;7.85;2.13;;;32.30;41.10;;;;;;4993053;28;20089;-72
2022/06/22 08:56:51;;;;;;;6.10;1.90;;;31.30;41.80;;;;;;5024857;28;20022;-72
2022/06/22 08:59:24;;;;;;;6.10;1.60;;;31.30;43.00;;;;;;4993231;28;20085;-71
2022/06/22 09:02:17;;;;;;;9.40;1.70;;;31.20;42.20;;;;;;5024729;28;20390;-71
2022/06/22 09:04:51;;;;;;;7.10;2.22;;;31.50;41.10;;;;;;5024426;28;20078;-71
2022/06/22 09:07:46;;;;;;;8.02;1.90;;;31.80;41.70;;;;;;4992969;28;20364;-75
2022/06/22 09:10:36;;;;;;;5.25;1.63;;;31.90;40.20;;;;;;4989766;28;20126;-73
2022/06/22 09:13:06;;;;;;;6.65;1.63;;;32.40;41.40;;;;;;4992917;28;20053;-72
2022/06/22 09:15:41;;;;;;;8.15;2.40;;;31.70;40.10;;;;;;5024623;28;20098;-72
2022/06/22 09:18:28;;;;;;;3.88;1.85;;;31.00;41.90;;;;;;5022986;28;20022;-71
2022/06/22 09:21:11;;;;;;;4.65;1.83;;;31.30;41.00;;;;;;5021335;28;20030;-71
2022/06/22 09:23:51;;;;;;;10.60;3.10;;;32.40;41.10;;;;;;4992822;28;20442;-70
2022/06/22 09:26:18;;;;;;;5.57;1.67;;;31.60;41.80;;;;;;5024482;28;20475;-71
2022/06/22 09:28:44;;;;;;;8.13;1.90;;;33.90;39.50;;;;;;5024257;28;20061;-71
2022/06/22 09:31:48;;;;;;;6.90;1.73;;;33.30;38.60;;;;;;4992842;28;20042;-71
2022/06/22 09:34:37;;;;;;;6.40;2.20;;;32.50;39.80;;;;;;4992833;28;20073;-71
2022/06/22 09:37:20;;;;;;;7.97;2.10;;;32.20;40.20;;;;;;4992742;28;20065;-71
2022/06/22 09:40:11;;;;;;;9.50;2.00;;;32.60;40.80;;;;;;5007091;28;20038;-71
2022/06/22 09:43:00;;;;;;;7.88;2.00;;;32.70;40.30;;;;;;4992682;28;20029;-71
2022/06/22 09:45:47;;;;;;;6.10;1.77;;;32.60;38.80;;;;;;4993397;28;20030;-71
2022/06/22 09:48:29;;;;;;;4.93;1.98;;;32.80;40.60;;;;;;4996567;28;20037;-71
2022/06/22 09:51:19;;;;;;;6.45;1.83;;;32.90;39.20;;;;;;5027840;28;20034;-71
2022/06/22 09:53:50;;;;;;;5.03;1.60;;;32.50;40.40;;;;;;4996055;28;20489;-71
2022/06/22 09:56:41;;;;;;;8.05;2.20;;;32.70;40.10;;;;;;5027872;28;20364;-71
2022/06/22 09:59:33;;;;;;;7.05;1.95;;;32.20;39.50;;;;;;5024739;28;20033;-71
2022/06/22 10:02:17;;;;;;;8.85;1.90;;;32.70;40.20;;;;;;5009564;28;20033;-71
2022/06/22 10:05:56;;;;;;;;;;;;;;;;;;;;;
2022/06/22 10:08:35;;;;;;;5.45;1.75;;;32.30;40.20;;;;;;4994957;28;20037;-71
2022/06/22 10:11:11;;;;;;;4.63;1.65;;;33.00;41.90;;;;;;4996072;28;20378;-70
2022/06/22 10:14:25;;;;;;;6.32;3.83;;;33.00;40.70;;;;;;5024968;28;20109;-72
2022/06/22 10:17:14;;;;;;;14.38;13.05;;;34.30;38.40;;;;;;4974860;28;20098;-71
2022/06/22 10:20:18;;;;;;;9.63;4.20;;;33.50;39.30;;;;;;4980995;28;20023;-71
2022/06/22 10:23:08;;;;;;;13.30;3.13;;;33.70;39.40;;;;;;5014620;28;20050;-71
2022/06/22 10:26:05;;;;;;;16.70;14.20;;;33.40;40.70;;;;;;5015259;28;20466;-70
2022/06/22 10:28:48;;;;;;;4.90;1.90;;;33.50;38.40;;;;;;5014194;28;20493;-73
2022/06/22 10:31:40;;;;;;;5.15;1.98;;;33.50;39.60;;;;;;5014232;28;20022;-72
2022/06/22 10:34:32;;;;;;;8.75;2.00;;;33.00;39.80;;;;;;4975880;28;20558;-73
2022/06/22 10:37:21;;;;;;;12.35;3.15;;;32.70;38.50;;;;;;4991185;28;20065;-73
2022/06/22 10:39:53;;;;;;;5.90;2.15;;;33.50;40.50;;;;;;4979712;28;20057;-72
2022/06/22 10:45:44;;;;;;;4.15;1.42;;;33.20;39.10;;;;;;4980816;28;20045;-73
2022/06/22 10:48:29;;;;;;;4.43;1.38;;;33.90;38.60;;;;;;4993334;28;20026;-73
2022/06/22 10:51:19;;;;;;;4.20;1.50;;;34.10;39.30;;;;;;4993800;28;20037;-73
2022/06/22 10:54:16;;;;;;;7.68;1.63;;;32.60;38.80;;;;;;4993791;28;20030;-73
2022/06/22 10:57:14;;;;;;;3.35;1.48;;;34.50;38.10;;;;;;4995866;28;20022;-73
2022/06/22 10:59:48;;;;;;;3.50;1.75;;;33.40;37.20;;;;;;4993467;28;20093;-80
2022/06/22 11:02:20;;;;;;;10.75;2.85;;;33.10;39.80;;;;;;4994642;28;20023;-78
2022/06/22 11:04:51;;;;;;;5.70;2.22;;;34.50;36.40;;;;;;4993213;28;20089;-75
2022/06/22 11:07:39;;;;;;;8.82;5.18;;;33.60;36.90;;;;;;4993630;28;20121;-74
2022/06/22 11:10:11;;;;;;;6.13;3.35;;;33.30;37.00;;;;;;4994554;28;20034;-77
2022/06/22 11:13:34;;;;;;;3.42;2.10;;;33.40;38.00;;;;;;4993526;28;20050;-73
2022/06/22 11:16:22;;;;;;;5.18;2.72;;;35.00;37.10;;;;;;4992788;28;20062;-76
2022/06/22 11:18:52;;;;;;;3.25;2.03;;;34.00;36.80;;;;;;4994308;28;20042;-75
2022/06/22 11:21:45;;;;;;;3.40;1.70;;;33.70;38.30;;;;;;4993217;28;20375;-74
2022/06/22 11:24:50;;;;;;;7.00;1.25;;;33.70;37.00;;;;;;4994030;28;20033;-72
2022/06/22 11:30:51;;;;;;;5.88;1.65;;;33.50;35.40;;;;;;4993372;28;20112;-72
2022/06/22 11:33:42;;;;;;;5.53;1.60;;;36.50;34.70;;;;;;4993542;28;20105;-76
2022/06/22 11:36:26;;;;;;;3.60;1.90;;;35.00;34.00;;;;;;4992955;28;20042;-76
2022/06/22 11:39:06;;;;;;;10.05;6.85;;;35.30;34.90;;;;;;4992751;28;20030;-72
2022/06/22 11:42:14;;;;;;;9.23;5.00;;;33.90;34.70;;;;;;4993000;28;20022;-75
2022/06/22 11:47:54;;;;;;;4.68;3.15;;;34.20;35.70;;;;;;4993076;28;20399;-72
2022/06/22 11:50:29;;;;;;;5.65;1.77;;;33.50;35.70;;;;;;4993674;28;20029;-73
2022/06/22 11:53:14;;;;;;;2.45;1.58;;;33.00;36.00;;;;;;4993610;28;20486;-73
2022/06/22 11:55:47;;;;;;;2.70;1.63;;;34.60;34.50;;;;;;4993925;28;20042;-73
2022/06/22 11:58:24;;;;;;;4.55;1.38;;;34.30;33.10;;;;;;4992625;28;20129;-73
2022/06/22 12:01:15;;;;;;;4.07;1.83;;;34.00;32.80;;;;;;4993476;28;20031;-73
2022/06/22 12:04:31;;;;;;;3.90;1.70;;;34.00;34.70;;;;;;4992525;28;20046;-72
2022/06/22 12:07:25;;;;;;;4.20;1.63;;;33.80;36.70;;;;;;4991133;28;20027;-71
2022/06/22 12:09:51;;;;;;;;;;;33.00;36.10;;;;;;4990938;28;20033;-73
2022/06/22 12:12:43;;;;;;;5.68;1.75;;;32.90;37.10;;;;;;4992701;28;19910;-73
2022/06/22 12:15:39;;;;;;;6.07;2.30;;;33.40;36.60;;;;;;4993259;28;20724;-77
2022/06/22 12:18:33;;;;;;;12.60;2.30;;;33.20;36.30;;;;;;4993355;28;20030;-76
2022/06/22 12:21:02;;;;;;;3.97;1.85;;;34.50;34.50;;;;;;4991880;28;20507;-76
2022/06/22 12:23:47;;;;;;;5.80;1.60;;;33.50;35.20;;;;;;4993316;28;20109;-76
2022/06/22 12:26:53;;;;;;;5.28;1.52;;;32.40;36.10;;;;;;4992186;28;20026;-77
2022/06/22 12:29:54;;;;;;;7.15;1.65;;;32.40;37.30;;;;;;4992288;28;20033;-76
2022/06/22 12:32:43;;;;;;;5.82;1.73;;;32.50;37.90;;;;;;4978694;28;20022;-77
2022/06/22 12:35:24;;;;;;;31.27;25.58;;;32.60;38.30;;;;;;4992010;28;20034;-77
2022/06/22 12:38:01;;;;;;;9.30;3.17;;;31.60;38.70;;;;;;4992985;28;20045;-77
2022/06/22 12:40:59;;;;;;;6.43;1.92;;;31.70;38.20;;;;;;4975978;28;20034;-70
2022/06/22 12:43:44;;;;;;;4.60;1.73;;;31.80;36.80;;;;;;4991773;28;20030;-71
2022/06/22 12:46:28;;;;;;;4.18;1.75;;;31.60;36.60;;;;;;4992894;28;20032;-71
2022/06/22 12:49:18;;;;;;;6.22;1.60;;;31.70;37.80;;;;;;4988005;28;20061;-71
2022/06/22 12:51:57;;;;;;;8.07;1.73;;;31.60;37.10;;;;;;4978046;28;20019;-71
2022/06/22 12:54:27;;;;;;;7.85;1.40;;;31.60;37.50;;;;;;5006938;28;20030;-71
2022/06/22 12:57:02;;;;;;;5.35;1.75;;;31.70;38.20;;;;;;5024279;28;20027;-71
2022/06/22 12:59:33;;;;;;;4.55;1.77;;;31.80;37.30;;;;;;4988956;28;20166;-77
2022/06/22 13:01:58;;;;;;;3.70;1.60;;;31.40;38.70;;;;;;4983153;28;20038;-78
2022/06/22 13:04:26;;;;;;;8.35;6.13;;;31.10;38.90;;;;;;4973392;28;20051;-79
2022/06/22 13:06:55;;;;;;;10.95;6.07;;;31.50;40.00;;;;;;4971426;28;20038;-77
2022/06/22 13:09:20;;;;;;;4.80;2.47;;;31.30;38.20;;;;;;4988189;28;20026;-77
2022/06/22 13:11:48;;;;;;;6.70;2.20;;;31.30;39.30;;;;;;4973602;28;20034;-77
2022/06/22 13:14:36;;;;;;;4.75;1.88;;;31.20;38.60;;;;;;4973429;28;20023;-77
2022/06/22 13:17:22;;;;;;;10.00;2.15;;;30.90;39.40;;;;;;4973422;28;20089;-77
2022/06/22 13:20:04;;;;;;;4.85;1.85;;;30.80;39.10;;;;;;4989664;28;20084;-78
2022/06/22 13:22:44;;;;;;;8.13;2.28;;;30.50;41.10;;;;;;4992521;28;20118;-78
2022/06/22 13:25:39;;;;;;;7.25;2.30;;;30.50;42.20;;;;;;4991460;28;20037;-78
2022/06/22 13:28:22;;;;;;;6.40;2.15;;;29.90;40.60;;;;;;4992442;28;20038;-78
2022/06/22 13:30:52;;;;;;;6.15;2.35;;;30.10;41.50;;;;;;4976244;28;20181;-78
2022/06/22 13:33:27;;;;;;;7.13;1.95;;;30.20;43.00;;;;;;4992276;28;20073;-78
2022/06/22 13:36:04;;;;;;;;;;;30.30;39.90;;;;;;4977609;28;20023;-76
2022/06/22 13:38:51;;;;;;;3.72;1.75;;;30.40;41.40;;;;;;4975904;28;20743;-77
2022/06/22 13:41:26;;;;;;;9.38;2.33;;;30.40;41.50;;;;;;4992295;28;20026;-78
2022/06/22 13:44:14;;;;;;;6.38;1.95;;;30.30;44.10;;;;;;4977034;28;20376;-78
2022/06/22 13:47:17;;;;;;;6.70;1.85;;;29.70;41.50;;;;;;4989919;28;20042;-78
2022/06/22 13:49:53;;;;;;;6.15;2.10;;;29.90;41.70;;;;;;4976998;28;20033;-78
2022/06/22 13:52:39;;;;;;;6.63;2.28;;;29.80;42.50;;;;;;4975743;28;20081;-77
2022/06/22 13:55:14;;;;;;;6.22;1.70;;;29.60;41.40;;;;;;4975714;28;20118;-76
2022/06/22 13:57:41;;;;;;;5.82;2.03;;;29.70;41.40;;;;;;4991920;28;20026;-76